Calmar, Canada
Current Conditions -  °F | °C
As of 9:00 PM on Wednesday 22 Oct 2014 (Local Time) from CYEG Reporting Station
Overcast Overcast  
Wind Chill: 50°   Ceiling: 21000
Heat Index: 50°   Visibility: 15mi
Dew Point: 32°   Wind: 10mph
Humidity: 50%   Direction: 150°SSE
Pressure: 29.56"   Gusts: NA
Location:  53.25°N, 113.78°W
Report Text: CYEG 230300Z 15009KT 15SM SCT170 OVC210 10/M00 A2956 RMK AC4CI4 SLP028 DENSITY ALT 2700FT
Loading
Personal Weather Stations






























Interactive Weather Map
Tropical Storm Tracking
New forecast layout! Learn more

10-Day Weather Forecast

Advertisements
Track Severe Weather on mobile